Weather at Baptist Health Bethesda Hospital East Heliport

Public forecast

Using degrees Fahrenheit for public forecast. Weather courtesy of forecast.io.

Closest aviation weather report (METAR) to Baptist Health Bethesda Hospital East Heliport

Closest report is Palm Beach County Park Airport, 5.3 nm (9.9 km) N.

2024/05/30 09:15 (retrieved 34 minutes ago)

KLNA 300915Z AUTO 00000KT 10SM CLR 25/25 A3000 RMK AO2 T02510249

Closest aviation forecast (TAF) to Baptist Health Bethesda Hospital East Heliport

Closest forecast is Palm Beach International Airport, 10.8 nm (19.9 km) N.

2024/05/30 09:45 Ammendment (retrieved 4 minutes ago)

TAF AMD KPBI 300837Z 3009/3106 VRB05KT P6SM SKC FM301700 08010KT P6SM SCT030 SCT250 FM302100 08011KT P6SM VCTS SCT025CB BKN050 FM310100 VRB05KT P6SM SCT030 SCT060